Time;durP1;ratioP1;P1;durP2;ratioP2;P2;SDS_P1;SDS_P2;PMS_P1;PMS_P2;Temp;Humidity;BMP_temperature;BMP_pressure;BME280_temperature;BME280_humidity;BME280_pressure;Samples;Min_cycle;Max_cycle;Signal;HPM_P1;HPM_P2
2022/01/19 00:01:04;;;;;;;83.17;52.77;;;;;;;;;;4994139;28;20034;-63
2022/01/19 00:03:30;;;;;;;75.23;51.87;;;;;;;;;;5023162;28;20040;-63
2022/01/19 00:05:56;;;;;;;77.13;50.20;;;;;;;;;;5014088;28;20021;-63
2022/01/19 00:08:22;;;;;;;75.50;48.83;;;;;;;;;;5015401;28;20092;-63
2022/01/19 00:10:49;;;;;;;77.20;49.47;;;;;;;;;;5012139;28;20029;-63
2022/01/19 00:13:16;;;;;;;76.40;50.47;;;;;;;;;;4998655;28;20065;-63
2022/01/19 00:15:42;;;;;;;77.57;48.27;;;;;;;;;;4993732;28;20030;-63
2022/01/19 00:18:08;;;;;;;78.87;47.57;;;;;;;;;;4997747;28;20049;-62
2022/01/19 00:20:35;;;;;;;71.07;46.77;;;;;;;;;;5011383;28;20479;-63
2022/01/19 00:23:02;;;;;;;71.23;47.30;;;;;;;;;;5011851;28;20475;-63
2022/01/19 00:25:28;;;;;;;66.53;45.97;;;;;;;;;;5023074;28;20041;-64
2022/01/19 00:27:54;;;;;;;70.20;46.30;;;;;;;;;;5008366;28;20058;-63
2022/01/19 00:30:20;;;;;;;71.00;47.10;;;;;;;;;;4983710;28;20444;-63
2022/01/19 00:32:46;;;;;;;65.77;43.30;;;;;;;;;;5001280;28;20038;-64
2022/01/19 00:35:12;;;;;;;70.17;46.17;;;;;;;;;;5004286;28;20030;-63
2022/01/19 00:37:39;;;;;;;72.67;45.87;;;;;;;;;;4994264;28;20498;-63
2022/01/19 00:40:05;;;;;;;69.37;45.70;;;;;;;;;;5012275;28;20048;-63
2022/01/19 00:42:31;;;;;;;69.17;47.10;;;;;;;;;;5004348;28;20026;-63
2022/01/19 00:44:57;;;;;;;71.43;45.63;;;;;;;;;;4961006;28;20034;-63
2022/01/19 00:47:24;;;;;;;72.83;45.57;;;;;;;;;;5001442;28;20109;-63
2022/01/19 00:49:50;;;;;;;76.23;48.07;;;;;;;;;;5017156;28;20037;-64
2022/01/19 00:52:16;;;;;;;68.43;45.90;;;;;;;;;;5014079;28;20498;-63
2022/01/19 00:54:42;;;;;;;73.10;47.70;;;;;;;;;;5014582;28;20040;-63
2022/01/19 00:57:08;;;;;;;67.13;45.67;;;;;;;;;;5014929;28;20038;-64
2022/01/19 00:59:34;;;;;;;67.57;44.47;;;;;;;;;;5016850;28;20038;-64
2022/01/19 01:02:01;;;;;;;69.33;44.63;;;;;;;;;;4994755;28;20022;-63
2022/01/19 01:04:27;;;;;;;68.07;44.13;;;;;;;;;;4997165;28;20132;-64
2022/01/19 01:06:53;;;;;;;67.13;45.70;;;;;;;;;;4998812;28;20096;-64
2022/01/19 01:09:19;;;;;;;72.20;46.33;;;;;;;;;;5016058;28;20088;-64
2022/01/19 01:12:02;;;;;;;69.53;45.37;;;;;;;;;;5014823;28;20113;-64
2022/01/19 01:18:17;;;;;;;70.05;45.17;;;;;;;;;;5009042;28;20084;-63
2022/01/19 01:20:00;;;;;;;72.53;46.17;;;;;;;;;;5015804;28;20080;-63
2022/01/19 01:22:36;;;;;;;74.47;45.40;;;;;;;;;;4996729;28;20400;-63
2022/01/19 01:25:02;;;;;;;65.63;44.87;;;;;;;;;;5004696;28;20096;-64
2022/01/19 01:27:28;;;;;;;67.87;43.87;;;;;;;;;;5001451;28;20037;-64
2022/01/19 01:29:54;;;;;;;62.77;41.53;;;;;;;;;;5008000;28;20109;-64
2022/01/19 01:32:20;;;;;;;66.17;43.07;;;;;;;;;;5019574;28;20053;-63
2022/01/19 01:34:58;;;;;;;62.53;41.87;;;;;;;;;;5015079;28;20026;-63
2022/01/19 01:37:24;;;;;;;66.53;40.83;;;;;;;;;;5011285;28;20046;-63
2022/01/19 01:39:50;;;;;;;65.60;42.07;;;;;;;;;;5021766;28;20517;-63
2022/01/19 01:42:17;;;;;;;64.10;42.13;;;;;;;;;;5009745;28;20487;-63
2022/01/19 01:44:46;;;;;;;59.30;41.07;;;;;;;;;;4996565;28;20022;-64
2022/01/19 01:47:14;;;;;;;66.80;42.63;;;;;;;;;;4996836;28;20480;-63
2022/01/19 01:55:15;;;;;;;64.50;42.67;;;;;;;;;;4996379;28;20048;-63
2022/01/19 01:57:42;;;;;;;63.33;42.07;;;;;;;;;;4998047;28;20057;-63
2022/01/19 02:00:09;;;;;;;60.17;42.10;;;;;;;;;;5015751;28;20295;-64
2022/01/19 02:02:36;;;;;;;60.93;39.70;;;;;;;;;;5008316;28;20033;-64
2022/01/19 02:05:02;;;;;;;61.23;40.03;;;;;;;;;;5014183;28;20026;-63
2022/01/19 02:07:49;;;;;;;63.83;41.70;;;;;;;;;;5002118;28;20029;-63
2022/01/19 02:15:57;;;;;;;;;;;;;;;;;;5018378;28;20039;-63
2022/01/19 02:23:55;;;;;;;60.13;40.22;;;;;;;;;;5002424;28;20104;-63
2022/01/19 02:26:30;;;;;;;67.23;40.80;;;;;;;;;;5032126;28;20383;-64
2022/01/19 02:31:53;;;;;;;57.30;39.00;;;;;;;;;;5026514;28;20064;-64
2022/01/19 02:42:44;;;;;;;58.17;40.27;;;;;;;;;;5001380;28;20607;-63
2022/01/19 02:50:27;;;;;;;59.70;39.43;;;;;;;;;;5015040;28;20557;-63
2022/01/19 02:52:53;;;;;;;59.63;38.33;;;;;;;;;;5013615;28;20035;-64
2022/01/19 02:55:19;;;;;;;62.97;39.73;;;;;;;;;;5028813;28;20044;-64
2022/01/19 02:57:46;;;;;;;56.93;38.57;;;;;;;;;;5006379;28;20487;-63
2022/01/19 03:08:46;;;;;;;54.75;37.65;;;;;;;;;;4998345;28;20083;-63
2022/01/19 03:11:14;;;;;;;61.67;40.13;;;;;;;;;;4982479;28;20022;-64
2022/01/19 03:13:40;;;;;;;59.60;38.00;;;;;;;;;;4995989;28;20026;-64
2022/01/19 03:16:06;;;;;;;60.87;38.17;;;;;;;;;;5015738;28;20106;-63
2022/01/19 03:18:32;;;;;;;59.90;38.90;;;;;;;;;;4996866;28;20499;-63
2022/01/19 03:20:58;;;;;;;58.00;37.60;;;;;;;;;;4994372;28;20395;-63
2022/01/19 03:23:24;;;;;;;64.37;42.40;;;;;;;;;;4994705;28;20101;-63
2022/01/19 03:25:54;;;;;;;81.93;56.60;;;;;;;;;;5015546;28;20120;-63
2022/01/19 03:28:20;;;;;;;81.73;59.47;;;;;;;;;;4996509;28;20100;-64
2022/01/19 03:30:48;;;;;;;86.67;59.77;;;;;;;;;;4994239;28;20149;-64
2022/01/19 03:33:14;;;;;;;78.43;55.17;;;;;;;;;;5010082;28;20022;-64
2022/01/19 03:35:40;;;;;;;78.80;54.50;;;;;;;;;;5013713;28;20553;-63
2022/01/19 03:38:07;;;;;;;84.37;54.47;;;;;;;;;;5009237;28;20402;-63
2022/01/19 03:40:33;;;;;;;79.33;54.20;;;;;;;;;;5012629;28;20490;-63
2022/01/19 03:42:59;;;;;;;81.47;53.83;;;;;;;;;;5008638;28;20443;-63
2022/01/19 03:45:26;;;;;;;76.43;51.83;;;;;;;;;;5013856;28;20076;-63
2022/01/19 03:48:06;;;;;;;79.03;53.53;;;;;;;;;;4983626;28;20030;-64
2022/01/19 03:50:32;;;;;;;79.73;53.33;;;;;;;;;;4994529;28;20036;-64
2022/01/19 03:52:58;;;;;;;70.97;47.80;;;;;;;;;;5007691;28;20025;-64
2022/01/19 03:55:24;;;;;;;73.63;51.03;;;;;;;;;;5013821;28;20100;-64
2022/01/19 03:57:50;;;;;;;78.80;53.23;;;;;;;;;;5001366;28;20113;-63
2022/01/19 04:00:18;;;;;;;82.07;55.27;;;;;;;;;;4994058;28;20167;-63
2022/01/19 04:02:44;;;;;;;82.00;55.67;;;;;;;;;;4996858;28;20030;-63
2022/01/19 04:05:20;;;;;;;78.53;54.97;;;;;;;;;;4990127;28;20033;-63
2022/01/19 04:07:46;;;;;;;79.37;55.70;;;;;;;;;;5009304;28;20030;-63
2022/01/19 04:10:13;;;;;;;79.57;56.77;;;;;;;;;;5012485;28;20560;-63
2022/01/19 04:12:56;;;;;;;82.90;55.57;;;;;;;;;;5004329;28;20391;-63
2022/01/19 04:15:23;;;;;;;78.63;55.07;;;;;;;;;;5001318;28;20492;-63
2022/01/19 04:17:53;;;;;;;79.23;53.03;;;;;;;;;;5011532;28;20033;-63
2022/01/19 04:20:21;;;;;;;78.97;52.93;;;;;;;;;;5001851;28;20030;-63
2022/01/19 04:22:47;;;;;;;78.77;52.67;;;;;;;;;;5000338;28;20105;-63
2022/01/19 04:25:13;;;;;;;75.33;51.87;;;;;;;;;;5003509;28;20454;-63
2022/01/19 04:27:41;;;;;;;75.87;52.27;;;;;;;;;;5007381;28;20037;-63
2022/01/19 04:30:10;;;;;;;79.27;53.47;;;;;;;;;;5008451;28;20029;-63
2022/01/19 04:35:13;;;;;;;74.82;50.15;;;;;;;;;;5004628;28;20511;-63
2022/01/19 05:04:10;;;;;;;58.43;39.33;;;;;;;;;;4996250;28;20058;-63
2022/01/19 05:06:43;;;;;;;;;;;;;;;;;;4988132;28;20030;-63
2022/01/19 05:09:29;;;;;;;53.73;38.13;;;;;;;;;;4996445;28;19910;-63
2022/01/19 05:14:40;;;;;;;57.03;38.90;;;;;;;;;;4993442;28;20045;-63
2022/01/19 05:17:06;;;;;;;57.03;38.90;;;;;;;;;;4993878;28;20467;-63
2022/01/19 05:19:32;;;;;;;58.67;38.60;;;;;;;;;;4997665;28;20061;-63
2022/01/19 05:21:58;;;;;;;56.40;37.27;;;;;;;;;;4995737;28;20038;-62
2022/01/19 05:24:24;;;;;;;51.27;36.53;;;;;;;;;;4998798;28;20054;-63
2022/01/19 05:26:51;;;;;;;56.73;39.33;;;;;;;;;;4991930;28;20073;-63
2022/01/19 05:29:17;;;;;;;59.63;39.63;;;;;;;;;;4988332;28;20038;-63
2022/01/19 05:31:43;;;;;;;54.87;37.83;;;;;;;;;;4981504;28;20053;-63
2022/01/19 05:34:10;;;;;;;59.60;40.27;;;;;;;;;;4981517;28;20496;-63
2022/01/19 05:36:36;;;;;;;58.13;37.90;;;;;;;;;;5000409;28;20065;-63
2022/01/19 05:39:05;;;;;;;56.07;38.00;;;;;;;;;;5009413;28;20057;-63
2022/01/19 05:41:31;;;;;;;55.03;37.63;;;;;;;;;;5006229;28;20029;-63
2022/01/19 05:43:57;;;;;;;54.10;37.13;;;;;;;;;;5007191;28;20030;-64
2022/01/19 05:46:23;;;;;;;57.93;39.63;;;;;;;;;;5007089;28;20033;-63
2022/01/19 05:48:49;;;;;;;58.50;39.53;;;;;;;;;;5009009;28;20034;-63
2022/01/19 05:51:15;;;;;;;56.80;37.33;;;;;;;;;;5005901;28;20084;-63
2022/01/19 05:53:41;;;;;;;57.00;38.23;;;;;;;;;;5007874;28;20054;-63
2022/01/19 05:56:07;;;;;;;58.00;38.13;;;;;;;;;;5007291;28;20026;-63
2022/01/19 05:58:34;;;;;;;57.13;37.80;;;;;;;;;;5007958;28;20022;-64
2022/01/19 06:01:00;;;;;;;57.37;39.00;;;;;;;;;;5005366;28;20125;-64
2022/01/19 06:03:26;;;;;;;59.10;38.93;;;;;;;;;;5007189;28;20021;-63
2022/01/19 06:05:52;;;;;;;55.30;38.90;;;;;;;;;;5006153;28;20022;-63
2022/01/19 06:10:45;;;;;;;60.37;38.97;;;;;;;;;;5006521;28;20034;-62
2022/01/19 06:13:13;;;;;;;59.97;40.00;;;;;;;;;;5009027;28;20035;-62
2022/01/19 06:15:39;;;;;;;51.17;33.23;;;;;;;;;;5007667;28;20258;-62
2022/01/19 06:18:05;;;;;;;51.33;32.13;;;;;;;;;;5007131;28;20038;-63
2022/01/19 06:20:31;;;;;;;53.27;34.87;;;;;;;;;;5007486;28;20033;-63
2022/01/19 06:22:57;;;;;;;56.60;33.63;;;;;;;;;;5008947;28;20034;-63
2022/01/19 06:25:23;;;;;;;46.93;32.27;;;;;;;;;;5008678;28;20475;-63
2022/01/19 06:27:49;;;;;;;49.73;31.80;;;;;;;;;;5009638;28;20021;-64
2022/01/19 06:30:15;;;;;;;48.33;33.33;;;;;;;;;;5007618;28;20097;-63
2022/01/19 06:32:41;;;;;;;49.67;33.07;;;;;;;;;;5009297;28;20026;-63
2022/01/19 06:35:08;;;;;;;47.90;33.07;;;;;;;;;;5007035;28;20143;-63
2022/01/19 06:37:34;;;;;;;46.87;31.27;;;;;;;;;;5006324;28;20466;-64
2022/01/19 06:40:00;;;;;;;51.63;33.43;;;;;;;;;;5004671;28;20077;-64
2022/01/19 06:42:29;;;;;;;52.40;31.13;;;;;;;;;;5000160;28;20030;-64
2022/01/19 06:44:55;;;;;;;46.60;32.23;;;;;;;;;;5005671;28;20065;-64
2022/01/19 06:47:21;;;;;;;46.07;31.30;;;;;;;;;;5009605;28;20475;-63
2022/01/19 06:49:47;;;;;;;48.93;33.53;;;;;;;;;;5005675;28;20165;-64
2022/01/19 06:52:13;;;;;;;53.00;35.03;;;;;;;;;;5008121;28;20132;-63
2022/01/19 06:54:39;;;;;;;55.90;35.07;;;;;;;;;;5008483;28;20792;-64
2022/01/19 06:57:05;;;;;;;57.87;36.70;;;;;;;;;;5007583;28;20501;-64
2022/01/19 06:59:31;;;;;;;56.50;37.00;;;;;;;;;;5006573;28;20029;-64
2022/01/19 07:01:57;;;;;;;55.67;38.20;;;;;;;;;;5009894;28;20038;-64
2022/01/19 07:04:23;;;;;;;58.67;38.83;;;;;;;;;;5011960;28;20525;-64
2022/01/19 07:06:49;;;;;;;52.27;36.70;;;;;;;;;;5013078;28;20068;-63
2022/01/19 07:09:15;;;;;;;60.63;39.10;;;;;;;;;;5016124;28;20089;-64
2022/01/19 07:11:41;;;;;;;59.93;38.30;;;;;;;;;;5012599;28;20100;-64
2022/01/19 07:14:08;;;;;;;52.27;35.97;;;;;;;;;;5014167;28;20032;-64
2022/01/19 07:16:41;;;;;;;58.00;38.20;;;;;;;;;;5006064;28;20030;-64
2022/01/19 07:19:08;;;;;;;51.40;37.00;;;;;;;;;;5007440;28;20507;-64
2022/01/19 07:21:34;;;;;;;55.40;37.23;;;;;;;;;;5011357;28;20036;-64
2022/01/19 07:24:00;;;;;;;50.23;35.13;;;;;;;;;;5012814;28;20034;-64
2022/01/19 07:26:26;;;;;;;55.73;37.17;;;;;;;;;;5012564;28;20036;-64
2022/01/19 07:28:52;;;;;;;61.03;36.83;;;;;;;;;;5013576;28;20502;-64
2022/01/19 07:31:19;;;;;;;55.33;35.80;;;;;;;;;;5009368;28;20064;-64
2022/01/19 07:33:45;;;;;;;54.87;36.30;;;;;;;;;;5006156;28;20026;-63
2022/01/19 07:36:11;;;;;;;47.93;33.77;;;;;;;;;;5010935;28;20172;-64
2022/01/19 07:39:14;;;;;;;53.50;36.60;;;;;;;;;;5013942;28;20061;-63
2022/01/19 07:41:41;;;;;;;54.30;36.93;;;;;;;;;;5002769;28;20045;-64
2022/01/19 07:44:07;;;;;;;51.73;35.17;;;;;;;;;;4999586;28;20112;-63
2022/01/19 07:46:33;;;;;;;51.83;34.60;;;;;;;;;;5005124;28;20050;-63
2022/01/19 07:49:00;;;;;;;61.30;36.60;;;;;;;;;;4979730;28;20033;-64
2022/01/19 07:51:26;;;;;;;55.40;35.90;;;;;;;;;;4995874;28;20357;-63
2022/01/19 07:53:52;;;;;;;54.63;35.47;;;;;;;;;;4994287;28;20439;-63
2022/01/19 07:56:18;;;;;;;54.13;36.10;;;;;;;;;;4993836;28;20149;-63
2022/01/19 07:58:44;;;;;;;51.97;35.27;;;;;;;;;;5012372;28;20116;-63
2022/01/19 08:01:10;;;;;;;59.47;37.07;;;;;;;;;;5012644;28;20117;-63
2022/01/19 08:03:36;;;;;;;57.60;36.83;;;;;;;;;;5013547;28;20112;-65
2022/01/19 08:06:02;;;;;;;54.73;36.67;;;;;;;;;;5007948;28;20028;-62
2022/01/19 08:08:28;;;;;;;55.30;36.53;;;;;;;;;;5012173;28;20026;-62
2022/01/19 08:10:54;;;;;;;58.17;38.10;;;;;;;;;;5012631;28;20112;-63
2022/01/19 08:13:21;;;;;;;58.27;38.10;;;;;;;;;;5013267;28;20025;-62
2022/01/19 08:15:47;;;;;;;63.83;36.90;;;;;;;;;;5010020;28;20591;-62
2022/01/19 08:18:13;;;;;;;60.33;37.30;;;;;;;;;;5012359;28;20775;-62
2022/01/19 08:20:40;;;;;;;56.33;38.27;;;;;;;;;;5012468;28;20041;-63
2022/01/19 08:26:19;;;;;;;51.13;36.33;;;;;;;;;;5007302;28;20041;-63
2022/01/19 08:28:45;;;;;;;59.57;36.77;;;;;;;;;;5009507;28;20037;-63
2022/01/19 08:31:12;;;;;;;56.67;33.70;;;;;;;;;;5013825;28;20037;-63
2022/01/19 08:33:38;;;;;;;49.87;33.80;;;;;;;;;;5009436;28;20364;-63
2022/01/19 08:36:04;;;;;;;56.33;33.67;;;;;;;;;;5018593;28;20546;-63
2022/01/19 08:38:30;;;;;;;48.17;32.40;;;;;;;;;;5010073;28;20038;-63
2022/01/19 08:40:56;;;;;;;48.50;32.10;;;;;;;;;;5011920;28;20076;-63
2022/01/19 08:43:22;;;;;;;49.47;32.97;;;;;;;;;;5011072;28;20467;-63
2022/01/19 08:45:48;;;;;;;54.67;34.60;;;;;;;;;;5011776;28;20036;-63
2022/01/19 08:48:14;;;;;;;50.40;32.73;;;;;;;;;;5009880;28;20057;-63
2022/01/19 08:50:40;;;;;;;48.10;33.90;;;;;;;;;;4991535;28;20045;-63
2022/01/19 08:53:19;;;;;;;51.80;32.30;;;;;;;;;;5000678;28;20030;-63
2022/01/19 08:55:49;;;;;;;47.87;31.30;;;;;;;;;;5011980;28;20046;-63
2022/01/19 08:58:23;;;;;;;46.50;31.77;;;;;;;;;;4985143;28;20065;-63
2022/01/19 09:00:53;;;;;;;54.53;33.57;;;;;;;;;;4995491;28;20388;-63
2022/01/19 09:03:19;;;;;;;56.73;33.93;;;;;;;;;;4992558;28;20053;-63
2022/01/19 09:05:48;;;;;;;48.40;31.27;;;;;;;;;;5010067;28;20065;-63
2022/01/19 09:08:16;;;;;;;51.10;33.53;;;;;;;;;;5000540;28;20065;-64
2022/01/19 09:10:45;;;;;;;53.60;33.97;;;;;;;;;;5013049;28;20056;-63
2022/01/19 09:22:23;;;;;;;57.83;34.63;;;;;;;;;;5010264;28;20064;-63
2022/01/19 09:24:49;;;;;;;52.33;32.53;;;;;;;;;;5012001;28;20030;-63
2022/01/19 09:30:22;;;;;;;51.00;32.43;;;;;;;;;;5011764;28;20041;-63
2022/01/19 09:33:05;;;;;;;51.43;31.87;;;;;;;;;;4999738;28;20030;-63
2022/01/19 09:35:50;;;;;;;53.80;33.53;;;;;;;;;;5014600;28;20026;-63
2022/01/19 09:38:18;;;;;;;50.53;31.13;;;;;;;;;;5012278;28;20030;-63
2022/01/19 09:41:13;;;;;;;51.33;31.27;;;;;;;;;;5007038;28;20049;-63
2022/01/19 09:43:41;;;;;;;48.65;33.85;;;;;;;;;;5001527;28;20490;-63
2022/01/19 09:49:12;;;;;;;49.10;31.07;;;;;;;;;;5010629;28;20040;-63
2022/01/19 09:51:42;;;;;;;45.43;30.00;;;;;;;;;;5013707;28;20028;-63
2022/01/19 09:54:08;;;;;;;48.67;31.77;;;;;;;;;;5014952;28;20026;-63
2022/01/19 09:56:34;;;;;;;50.53;31.80;;;;;;;;;;5013174;28;20029;-63
2022/01/19 09:59:00;;;;;;;47.00;30.93;;;;;;;;;;4997210;28;20034;-63
2022/01/19 10:01:26;;;;;;;54.17;31.67;;;;;;;;;;5012112;28;20483;-62
2022/01/19 10:03:53;;;;;;;55.57;34.03;;;;;;;;;;5017530;28;20553;-63
2022/01/19 10:06:22;;;;;;;49.47;32.83;;;;;;;;;;5012556;28;20030;-62
2022/01/19 10:08:49;;;;;;;48.87;33.10;;;;;;;;;;5015457;28;20037;-63
2022/01/19 10:11:28;;;;;;;47.13;32.17;;;;;;;;;;5011848;28;20037;-63
2022/01/19 10:17:01;;;;;;;56.87;34.70;;;;;;;;;;5003458;28;20060;-64
2022/01/19 10:19:36;;;;;;;61.13;36.03;;;;;;;;;;5012034;28;20030;-63
2022/01/19 10:22:18;;;;;;;59.63;34.40;;;;;;;;;;5013602;28;20402;-63
2022/01/19 10:24:46;;;;;;;62.43;34.57;;;;;;;;;;5012925;28;20026;-63
2022/01/19 10:27:32;;;;;;;56.97;36.90;;;;;;;;;;5011926;28;20042;-63
2022/01/19 10:29:58;;;;;;;;;;;;;;;;;;5008466;28;20030;-63
2022/01/19 10:32:25;;;;;;;59.87;37.10;;;;;;;;;;5013659;28;19906;-63
2022/01/19 10:34:55;;;;;;;58.80;37.97;;;;;;;;;;5003485;28;20034;-63
2022/01/19 10:37:29;;;;;;;58.90;36.97;;;;;;;;;;5004174;28;20050;-63
2022/01/19 10:40:02;;;;;;;58.00;38.00;;;;;;;;;;4974347;28;20089;-63
2022/01/19 10:42:42;;;;;;;64.50;37.87;;;;;;;;;;4995752;28;20030;-64
2022/01/19 10:45:12;;;;;;;58.13;38.10;;;;;;;;;;4977985;28;20042;-64
2022/01/19 10:47:38;;;;;;;63.70;40.43;;;;;;;;;;5002813;28;20498;-63
2022/01/19 10:50:05;;;;;;;65.20;41.53;;;;;;;;;;4996719;28;20019;-63
2022/01/19 10:52:37;;;;;;;69.60;42.80;;;;;;;;;;5017063;28;20057;-64
2022/01/19 10:55:06;;;;;;;65.50;41.77;;;;;;;;;;4995968;28;20121;-64
2022/01/19 10:57:33;;;;;;;63.60;41.33;;;;;;;;;;4987168;28;20510;-64
2022/01/19 11:00:17;;;;;;;62.80;41.50;;;;;;;;;;4994890;28;20048;-63
2022/01/19 11:02:44;;;;;;;61.60;41.17;;;;;;;;;;4987421;28;20033;-63
2022/01/19 11:05:10;;;;;;;70.20;43.77;;;;;;;;;;4992535;28;20062;-64
2022/01/19 11:07:37;;;;;;;65.63;42.50;;;;;;;;;;4999901;28;20030;-63
2022/01/19 11:12:43;;;;;;;74.73;43.17;;;;;;;;;;4987197;28;20038;-63
2022/01/19 11:15:10;;;;;;;66.03;43.50;;;;;;;;;;4989233;28;20022;-64
2022/01/19 11:17:37;;;;;;;67.97;44.00;;;;;;;;;;4996644;28;20426;-63
2022/01/19 11:20:07;;;;;;;67.53;44.87;;;;;;;;;;4993620;28;20045;-64
2022/01/19 11:22:41;;;;;;;72.63;45.70;;;;;;;;;;4996059;28;20030;-64
2022/01/19 11:25:10;;;;;;;70.63;45.03;;;;;;;;;;4998571;28;20065;-64
2022/01/19 11:27:39;;;;;;;69.27;45.73;;;;;;;;;;4981526;28;20030;-64
2022/01/19 11:30:09;;;;;;;70.53;45.50;;;;;;;;;;4988280;28;20092;-64
2022/01/19 11:32:35;;;;;;;71.30;46.97;;;;;;;;;;4989891;28;20479;-64
2022/01/19 11:35:03;;;;;;;78.43;47.67;;;;;;;;;;4992942;28;20022;-64
2022/01/19 11:43:58;;;;;;;71.13;46.47;;;;;;;;;;5003445;28;20522;-64
2022/01/19 11:46:27;;;;;;;73.53;46.97;;;;;;;;;;4995093;28;20040;-64
2022/01/19 11:48:54;;;;;;;74.87;49.03;;;;;;;;;;5004563;28;20053;-64
2022/01/19 11:51:24;;;;;;;73.60;48.60;;;;;;;;;;5012214;28;20356;-64
2022/01/19 11:54:06;;;;;;;70.30;47.03;;;;;;;;;;5010937;28;20049;-64
2022/01/19 11:56:54;;;;;;;70.13;46.73;;;;;;;;;;5007584;28;20038;-64
2022/01/19 11:59:21;;;;;;;73.87;46.57;;;;;;;;;;5011770;28;20087;-64
2022/01/19 12:01:47;;;;;;;72.07;47.47;;;;;;;;;;5012748;28;20124;-64
2022/01/19 12:04:18;;;;;;;74.80;48.90;;;;;;;;;;5011353;28;20038;-63
2022/01/19 12:06:44;;;;;;;79.87;48.27;;;;;;;;;;5012540;28;20029;-63
2022/01/19 12:09:12;;;;;;;71.03;44.63;;;;;;;;;;5024403;28;20057;-64
2022/01/19 12:11:42;;;;;;;70.67;46.47;;;;;;;;;;5003254;28;20041;-63
2022/01/19 12:16:53;;;;;;;75.40;48.20;;;;;;;;;;5012904;28;20116;-63
2022/01/19 12:19:26;;;;;;;72.83;46.20;;;;;;;;;;4998795;28;20038;-63
2022/01/19 12:22:15;;;;;;;70.00;46.13;;;;;;;;;;5012641;28;20029;-63
2022/01/19 12:24:44;;;;;;;70.37;47.17;;;;;;;;;;4992682;28;20029;-64
2022/01/19 12:27:16;;;;;;;74.33;47.50;;;;;;;;;;5010108;28;20026;-64
2022/01/19 12:29:47;;;;;;;70.00;45.73;;;;;;;;;;4999916;28;20030;-64
2022/01/19 12:32:16;;;;;;;68.87;46.13;;;;;;;;;;5012036;28;20108;-63
2022/01/19 12:34:48;;;;;;;68.67;44.50;;;;;;;;;;5011334;28;20376;-64
2022/01/19 12:37:34;;;;;;;74.60;47.63;;;;;;;;;;5011080;28;20042;-64
2022/01/19 12:40:01;;;;;;;68.13;45.20;;;;;;;;;;4993062;28;20409;-64
2022/01/19 12:42:40;;;;;;;73.83;47.73;;;;;;;;;;5002325;28;20053;-64
2022/01/19 12:45:17;;;;;;;69.80;45.27;;;;;;;;;;4995182;28;20435;-63
2022/01/19 12:47:44;;;;;;;69.20;46.00;;;;;;;;;;5008759;28;20025;-63
2022/01/19 12:50:10;;;;;;;72.73;46.00;;;;;;;;;;5015742;28;20033;-63
2022/01/19 12:52:47;;;;;;;69.20;46.10;;;;;;;;;;5016184;28;20036;-63
2022/01/19 12:55:14;;;;;;;69.27;44.37;;;;;;;;;;5004924;28;20038;-63
2022/01/19 12:57:41;;;;;;;69.63;44.47;;;;;;;;;;5003095;28;20050;-64
2022/01/19 13:00:09;;;;;;;69.53;45.13;;;;;;;;;;5011585;28;20117;-63
2022/01/19 13:02:50;;;;;;;67.03;44.67;;;;;;;;;;5015846;28;20030;-63
2022/01/19 13:05:18;;;;;;;68.50;43.80;;;;;;;;;;5013036;28;20026;-63
2022/01/19 13:07:55;;;;;;;69.10;43.67;;;;;;;;;;5016352;28;20208;-63
2022/01/19 13:10:46;;;;;;;70.13;44.87;;;;;;;;;;5012560;28;20483;-64
2022/01/19 13:13:18;;;;;;;70.55;44.65;;;;;;;;;;5016046;28;20120;-63
2022/01/19 13:15:47;;;;;;;69.53;44.15;;;;;;;;;;5012292;28;20022;-63
2022/01/19 13:18:15;;;;;;;69.27;44.40;;;;;;;;;;5015382;28;20029;-63
2022/01/19 13:20:49;;;;;;;63.40;44.30;;;;;;;;;;5013344;28;20096;-63
2022/01/19 13:23:15;;;;;;;64.60;42.07;;;;;;;;;;5013097;28;20037;-64
2022/01/19 13:25:40;;;;;;;66.67;43.93;;;;;;;;;;5014863;28;20034;-63
2022/01/19 13:28:07;;;;;;;67.57;44.50;;;;;;;;;;5002350;28;20040;-63
2022/01/19 13:30:34;;;;;;;65.87;43.40;;;;;;;;;;5004093;28;20057;-63
2022/01/19 13:33:09;;;;;;;67.17;43.87;;;;;;;;;;5015818;28;20029;-63
2022/01/19 13:35:35;;;;;;;63.67;42.77;;;;;;;;;;4997786;28;20364;-63
2022/01/19 13:38:09;;;;;;;66.70;43.60;;;;;;;;;;5013766;28;20072;-63
2022/01/19 13:40:35;;;;;;;69.20;43.55;;;;;;;;;;5014211;28;20475;-64
2022/01/19 13:43:03;;;;;;;67.43;44.27;;;;;;;;;;5015666;28;20491;-64
2022/01/19 13:45:48;;;;;;;64.53;42.57;;;;;;;;;;5014664;28;20034;-64
2022/01/19 13:48:28;;;;;;;63.42;42.13;;;;;;;;;;5016264;28;20091;-63
2022/01/19 13:50:59;;;;;;;68.82;42.22;;;;;;;;;;5010838;28;20033;-63
2022/01/19 13:53:37;;;;;;;64.03;42.03;;;;;;;;;;5015652;28;20021;-63
2022/01/19 13:56:05;;;;;;;64.03;41.80;;;;;;;;;;5011017;28;20496;-63
2022/01/19 13:58:51;;;;;;;65.17;42.70;;;;;;;;;;5014425;28;20038;-63
2022/01/19 14:01:22;;;;;;;65.83;41.57;;;;;;;;;;5009899;28;20046;-63
2022/01/19 14:03:48;;;;;;;64.03;42.10;;;;;;;;;;5014953;28;20430;-63
2022/01/19 14:06:28;;;;;;;64.18;40.47;;;;;;;;;;5013277;28;20105;-63
2022/01/19 14:09:08;;;;;;;65.70;40.47;;;;;;;;;;5014452;28;20037;-64
2022/01/19 14:11:34;;;;;;;64.30;40.78;;;;;;;;;;5007001;28;20025;-63
2022/01/19 14:14:08;;;;;;;62.33;40.67;;;;;;;;;;5006463;28;20022;-63
2022/01/19 14:16:38;;;;;;;62.43;40.93;;;;;;;;;;5011772;28;20025;-63
2022/01/19 14:19:09;;;;;;;61.75;40.13;;;;;;;;;;4990076;28;20030;-62
2022/01/19 14:21:35;;;;;;;65.03;41.50;;;;;;;;;;5014766;28;20049;-63
2022/01/19 14:24:02;;;;;;;64.43;41.93;;;;;;;;;;5014270;28;20026;-63
2022/01/19 14:26:28;;;;;;;65.20;42.90;;;;;;;;;;5016068;28;20034;-63
2022/01/19 14:29:10;;;;;;;64.17;41.93;;;;;;;;;;5012045;28;20090;-63
2022/01/19 14:31:47;;;;;;;64.03;40.07;;;;;;;;;;4993191;28;20022;-63
2022/01/19 14:34:13;;;;;;;65.70;42.50;;;;;;;;;;5012410;28;20029;-63
2022/01/19 14:36:39;;;;;;;63.87;41.30;;;;;;;;;;5012141;28;20046;-63
2022/01/19 14:39:05;;;;;;;62.40;41.47;;;;;;;;;;4996490;28;20026;-63
2022/01/19 14:41:36;;;;;;;58.73;40.17;;;;;;;;;;5013603;28;20040;-63
2022/01/19 14:44:19;;;;;;;59.43;40.47;;;;;;;;;;5004679;28;20021;-63
2022/01/19 14:47:05;;;;;;;60.00;41.13;;;;;;;;;;5006944;28;20033;-64
2022/01/19 14:49:34;;;;;;;64.73;41.47;;;;;;;;;;5012239;28;20022;-64
2022/01/19 14:52:00;;;;;;;62.53;40.63;;;;;;;;;;5014446;28;20029;-64
2022/01/19 14:54:26;;;;;;;65.63;40.63;;;;;;;;;;5012569;28;20030;-63
2022/01/19 14:56:53;;;;;;;61.57;40.03;;;;;;;;;;5013217;28;20025;-63
2022/01/19 14:59:20;;;;;;;57.67;38.07;;;;;;;;;;4999432;28;20038;-64
2022/01/19 15:01:49;;;;;;;64.73;41.13;;;;;;;;;;5025828;28;20479;-64
2022/01/19 15:04:15;;;;;;;61.33;40.93;;;;;;;;;;4991074;28;20161;-64
2022/01/19 15:06:44;;;;;;;66.47;42.27;;;;;;;;;;5009823;28;20112;-64
2022/01/19 15:09:10;;;;;;;67.40;41.47;;;;;;;;;;5009677;28;20068;-64
2022/01/19 15:11:37;;;;;;;63.87;41.20;;;;;;;;;;5013780;28;20022;-64
2022/01/19 15:14:03;;;;;;;62.27;41.77;;;;;;;;;;5011285;28;20133;-64
2022/01/19 15:16:29;;;;;;;64.57;42.53;;;;;;;;;;5013486;28;20499;-64
2022/01/19 15:18:55;;;;;;;63.20;42.80;;;;;;;;;;5011315;28;20026;-64
2022/01/19 15:21:22;;;;;;;63.83;41.20;;;;;;;;;;5008102;28;20038;-64
2022/01/19 15:23:49;;;;;;;69.37;43.37;;;;;;;;;;5007199;28;20365;-63
2022/01/19 15:26:15;;;;;;;63.27;41.80;;;;;;;;;;5013129;28;20498;-63
2022/01/19 15:28:41;;;;;;;64.77;44.33;;;;;;;;;;5007585;28;20029;-64
2022/01/19 15:31:09;;;;;;;66.80;42.83;;;;;;;;;;5013295;28;20369;-64
2022/01/19 15:33:35;;;;;;;68.37;43.23;;;;;;;;;;4992429;28;20034;-63
2022/01/19 15:36:02;;;;;;;65.60;43.13;;;;;;;;;;5004997;28;20049;-64
2022/01/19 15:38:28;;;;;;;65.70;43.63;;;;;;;;;;5013615;28;20060;-64
2022/01/19 15:40:55;;;;;;;67.30;42.90;;;;;;;;;;5010512;28;20075;-63
2022/01/19 15:43:21;;;;;;;71.23;43.83;;;;;;;;;;5012917;28;20034;-63
2022/01/19 15:45:47;;;;;;;71.37;45.13;;;;;;;;;;5011027;28;20030;-63
2022/01/19 15:48:17;;;;;;;69.90;44.30;;;;;;;;;;5012691;28;20036;-64
2022/01/19 15:50:45;;;;;;;65.30;42.90;;;;;;;;;;5010028;28;20022;-63
2022/01/19 15:53:11;;;;;;;69.67;45.70;;;;;;;;;;5011945;28;20034;-63
2022/01/19 15:55:37;;;;;;;71.80;44.30;;;;;;;;;;5009232;28;20033;-63
2022/01/19 15:58:03;;;;;;;74.50;45.63;;;;;;;;;;5011152;28;20029;-64
2022/01/19 16:00:29;;;;;;;71.07;44.80;;;;;;;;;;5011681;28;20037;-63
2022/01/19 16:02:55;;;;;;;73.17;45.47;;;;;;;;;;5011414;28;20509;-64
2022/01/19 16:05:21;;;;;;;79.30;47.17;;;;;;;;;;5012147;28;20037;-64
2022/01/19 16:07:47;;;;;;;78.57;47.40;;;;;;;;;;5010691;28;20025;-64
2022/01/19 16:10:13;;;;;;;78.77;48.80;;;;;;;;;;5015146;28;20029;-63
2022/01/19 16:12:39;;;;;;;70.10;45.03;;;;;;;;;;5004744;28;20526;-63
2022/01/19 16:15:05;;;;;;;74.47;45.10;;;;;;;;;;5012108;28;20399;-63
2022/01/19 16:17:31;;;;;;;75.20;46.37;;;;;;;;;;5004205;28;20471;-63
2022/01/19 16:19:57;;;;;;;73.60;46.87;;;;;;;;;;5012769;28;20468;-64